Tropical Cyclones
[Index]
Main Index Home Page Stock Weather Photos Extreme Storms Discussion Storm News and Storm Chasing Reports Tropical Cyclones / Hurricanes / Typhoons Weather Data and Links Wild Fires / Bushfires Weather Observation Techniques Weather Picture Catalogue Tornado Pictures and Reports Stock Video Footage and DVDs for sale
Season 2012-2013 Tropical Cyclone SANDRA Track Map
Season 2012-2013 Summaries (Operational Data): [AU] [SIO] [SPAC] [SH]
<<- Previous TC | 2012-2013 Season | Next TC ->>

click for intensity scale information  Lat/long Grid: Show Hide

 Date Labels: Show Hide

Operational Tropical Cyclone Data : JTWC Advisories

Name: SANDRA
Number: 1319

04 Mar 2013 00:00 UTC to 17 Mar 2013 12:00 UTC

    date/time    lat    long     hPa   cat  kts
2013-03-04 00   17.0   147.2    1010         15          
2013-03-04 06   17.1   147.7    1010         15          
2013-03-04 12   17.2   149.0    1010         15          
2013-03-04 18   17.8   149.4    1007         20          
2013-03-05 00   17.9   149.9    1004         25          
2013-03-05 06   17.8   150.6    1000         30          
2013-03-05 12   17.7   151.3    1004         25          
2013-03-05 18   17.5   151.9    1000         30          
2013-03-06 00   17.3   152.5    1000         30          
2013-03-06 06   17.1   153.1     998         30          
2013-03-06 12   16.7   153.8     998         30          
2013-03-06 18   16.5   154.3     998         30          
2013-03-07 06   15.9   155.3    1000         30          
2013-03-07 12   15.5   155.8     996    1    35          
2013-03-07 18   15.2   156.2     993    1    40          
2013-03-08 00   14.9   156.6     989    1    45          
2013-03-08 06   14.8   157.1     985    2    50          
2013-03-08 12   15.0   157.6     978    2    60          
2013-03-08 18   15.2   157.9     974    3    65          
2013-03-09 00   15.3   158.3     974    3    65          
2013-03-09 06   15.5   158.9     974    3    65          
2013-03-09 12   15.7   159.6     974    3    65          
2013-03-09 18   15.8   160.0     970    3    70          
2013-03-10 00   15.9   160.5     959    3    85          
2013-03-10 06   16.2   160.9     956    4    90          
2013-03-10 12   16.5   161.1     941    5   110          
2013-03-10 18   16.8   161.3     941    5   110          
2013-03-11 00   17.2   161.6     944    4   105          
2013-03-11 06   17.7   161.8     952    4    95          
2013-03-11 12   18.2   162.0     956    4    90          
2013-03-11 18   19.1   161.9     956    4    90          
2013-03-12 00   20.0   161.9     959    3    85          
2013-03-12 06   20.9   161.9     967    3    75          
2013-03-12 12   21.9   161.9     967    3    75          
2013-03-12 18   22.8   161.8     974    3    65          
2013-03-13 00   23.5   161.6     982    2    55          
2013-03-13 06   24.7   161.8     989    1    45          
2013-03-13 12   25.9   162.0     989    1    45          
2013-03-13 18   27.1   162.1     989    1    45          
2013-03-14 00   28.8   162.1     989    1    45          
2013-03-14 06   30.2   161.8     989    1    45          
2013-03-14 12   30.9   161.4     985    2    50          
2013-03-14 18   31.6   161.4     989    1    45          
2013-03-15 00   32.3   161.4     985    2    50          
2013-03-15 06   32.8   161.5     985    2    50          
2013-03-15 12   33.2   161.9     985    2    50          
2013-03-15 18   33.5   162.2     985    2    50          
2013-03-16 00   35.0   162.3                             
2013-03-16 06   35.4   163.1                             
2013-03-16 12   36.2   164.9                             
2013-03-16 18   37.5   167.1                             
2013-03-17 00   41.5   167.6                             
2013-03-17 06   42.6   169.6                             
2013-03-17 12   42.4   170.4                             
Winds are 10-min average.

Tropical cyclone tracks developed by Michael Bath using operational warnings and advisories and Google Maps.


[Australian Severe Weather index] [Copyright Notice] [Email Contacts] [Search This Site] [Privacy Policy]
Document: tropical_cyclone_sandra.htm Updated: 2 May 2017